LIPA

Details ICAO LIPA (AVB)
Name AVIANO AB
Region Italy
Timezone Europe/Rome (UTC+2.0)
Plans Departing 38
Arriving 54
Stats Elevation 410 ft / 125 m (AMSL)
Location 46.031111° 12.596389°
Runways 1
Magnetic Variation 3.305° E
Sunrise 2018-05-23 03:30:41 UTC / 2018-05-23 05:30:41 Local
Sunset 2018-05-23 18:44:54 UTC / 2018-05-23 20:44:54 Local
Advertisement - Login to hide

Runways

ID Width Length Bearing (true) Bearing (mag) Surface Threshold Offset Overrun Length
05 144 ft / 44 m 8,505 ft / 2,592 m 48.12° 44.81° Asphalt 0 ft / 0 m 845 ft / 258 m
23 144 ft / 44 m 8,505 ft / 2,592 m 228.14° 224.83° Asphalt 0 ft / 0 m 919 ft / 280 m

Approach Navaids

Runway Type Ident Frequency Range Bearing (true) Bearing (mag) Slope Elevation
05 Localiser IAVI 109.50 MHz 18 nm / 33 km 48.12° 44.82° - 410 ft / 125 m (AMSL)

Map

Weather


0- 5 10 15 20 25 30 35+ Temperature / ° C

Clouds and Precipitation
Forecast for 2018-05-23 12:00 UTC. Updated 2 hours ago

Ground ~20,000 ft ~40,000 ft Winds

METAR

LIPA 231055Z 06003KT 9999 SCT050 BKN100 23/17 Q1016

TAF

Not found

Frequencies

Recorded 129.30 MHz ATIS
Approach 120.12 MHz APP
Clearance 122.10 MHz CLNC DEL
Warning: Do not use this data for real-world aviation or navigation. No guarantee of current accuracy is given.